createdAt,value
2022-07-28T00:00:28.965Z,100.00
2022-07-28T00:02:59.126Z,100.00
2022-07-28T00:05:27.594Z,100.00
2022-07-28T00:07:56.445Z,100.00
2022-07-28T00:10:25.027Z,100.00
2022-07-28T00:12:53.400Z,100.00
2022-07-28T00:15:21.776Z,100.00
2022-07-28T00:17:50.177Z,100.00
2022-07-28T00:20:21.012Z,100.00
2022-07-28T00:22:49.346Z,100.00
2022-07-28T00:25:17.737Z,100.00
2022-07-28T00:27:46.135Z,100.00
2022-07-28T00:30:14.936Z,100.00
2022-07-28T00:32:43.651Z,100.00
2022-07-28T00:35:12.462Z,100.00
2022-07-28T00:37:44.949Z,100.00
2022-07-28T00:40:17.762Z,100.00
2022-07-28T00:42:46.263Z,100.00
2022-07-28T00:45:14.733Z,100.00
2022-07-28T00:47:43.092Z,100.00
2022-07-28T00:50:13.016Z,100.00
2022-07-28T00:52:41.673Z,100.00
2022-07-28T00:55:11.811Z,100.00
2022-07-28T00:57:41.775Z,100.00
2022-07-28T01:00:12.240Z,100.00
2022-07-28T01:02:40.389Z,100.00
2022-07-28T01:05:09.682Z,100.00
2022-07-28T01:07:42.393Z,100.00
2022-07-28T01:10:17.432Z,100.00
2022-07-28T01:12:51.360Z,100.00
2022-07-28T01:15:24.708Z,100.00
2022-07-28T01:18:00.460Z,100.00
2022-07-28T01:20:33.139Z,100.00
2022-07-28T01:23:20.962Z,100.00
2022-07-28T01:26:03.625Z,100.00
2022-07-28T01:28:45.853Z,100.00
2022-07-28T01:31:20.613Z,100.00
2022-07-28T01:33:52.738Z,100.00
2022-07-28T01:36:24.767Z,100.00
2022-07-28T01:38:53.370Z,100.00
2022-07-28T01:41:24.127Z,100.00
2022-07-28T01:43:57.957Z,100.00
2022-07-28T01:46:28.560Z,100.00
2022-07-28T01:48:58.419Z,100.00
2022-07-28T01:51:29.687Z,100.00
2022-07-28T01:53:59.911Z,100.00
2022-07-28T01:56:30.647Z,100.00
2022-07-28T01:59:01.839Z,100.00
2022-07-28T02:01:33.601Z,100.00
2022-07-28T02:04:02.794Z,100.00
2022-07-28T02:06:31.860Z,100.00
2022-07-28T02:09:01.249Z,100.00
2022-07-28T02:11:43.162Z,100.00
2022-07-28T02:14:14.425Z,100.00
2022-07-28T02:16:47.169Z,100.00
2022-07-28T02:19:15.928Z,100.00
2022-07-28T02:21:47.679Z,100.00
2022-07-28T02:24:19.912Z,100.00
2022-07-28T02:26:52.326Z,100.00
2022-07-28T02:29:49.305Z,100.00
2022-07-28T02:32:28.161Z,100.00
2022-07-28T02:35:00.344Z,100.00
2022-07-28T02:37:35.028Z,100.00
2022-07-28T02:40:05.178Z,100.00
2022-07-28T02:42:35.169Z,100.00
2022-07-28T02:45:06.364Z,100.00
2022-07-28T02:47:40.175Z,100.00
2022-07-28T02:50:09.896Z,100.00
2022-07-28T02:52:38.534Z,100.00
2022-07-28T02:55:07.964Z,100.00
2022-07-28T02:57:36.760Z,100.00
2022-07-28T03:00:06.297Z,100.00
2022-07-28T03:02:36.793Z,100.00
2022-07-28T03:05:07.637Z,100.00
2022-07-28T03:07:47.087Z,100.00
2022-07-28T03:10:33.590Z,100.00
2022-07-28T03:13:03.908Z,100.00
2022-07-28T03:15:33.046Z,100.00
2022-07-28T03:18:03.758Z,100.00
2022-07-28T03:20:32.460Z,100.00
2022-07-28T03:23:00.983Z,100.00
2022-07-28T03:25:34.193Z,100.00
2022-07-28T03:28:04.833Z,100.00
2022-07-28T03:30:36.508Z,100.00
2022-07-28T03:33:06.966Z,100.00
2022-07-28T03:35:37.154Z,100.00
2022-07-28T03:38:09.706Z,100.00
2022-07-28T03:40:39.065Z,100.00
2022-07-28T03:43:08.567Z,100.00
2022-07-28T03:45:40.774Z,100.00
2022-07-28T03:48:10.958Z,100.00
2022-07-28T03:50:39.343Z,100.00
2022-07-28T03:53:20.481Z,100.00
2022-07-28T03:55:51.015Z,100.00
2022-07-28T03:58:20.358Z,100.00
2022-07-28T04:00:49.456Z,100.00
2022-07-28T04:03:22.075Z,100.00
2022-07-28T04:06:05.387Z,100.00
2022-07-28T04:08:33.818Z,100.00
2022-07-28T04:11:02.253Z,100.00
2022-07-28T04:13:32.108Z,100.00
2022-07-28T04:16:00.916Z,100.00
2022-07-28T04:18:30.718Z,100.00
2022-07-28T04:20:59.088Z,100.00
2022-07-28T04:23:27.499Z,100.00
2022-07-28T04:25:55.917Z,100.00
2022-07-28T04:28:24.377Z,100.00
2022-07-28T04:30:52.853Z,100.00
2022-07-28T04:33:21.323Z,100.00
2022-07-28T04:35:52.698Z,100.00
2022-07-28T04:38:21.402Z,100.00
2022-07-28T04:40:50.377Z,100.00
2022-07-28T04:43:18.941Z,100.00
2022-07-28T04:45:53.994Z,100.00
2022-07-28T04:48:23.524Z,100.00
2022-07-28T04:50:53.692Z,100.00
2022-07-28T04:53:22.509Z,100.00
2022-07-28T04:55:53.446Z,100.00
2022-07-28T04:58:23.701Z,100.00
2022-07-28T05:00:52.880Z,100.00
2022-07-28T05:03:21.673Z,100.00
2022-07-28T05:05:54.630Z,100.00
2022-07-28T05:08:26.104Z,100.00
2022-07-28T05:10:56.648Z,100.00
2022-07-28T05:13:28.952Z,100.00
2022-07-28T05:16:01.865Z,100.00
2022-07-28T05:18:30.322Z,100.00
2022-07-28T05:20:58.702Z,100.00
2022-07-28T05:23:28.517Z,100.00
2022-07-28T05:25:56.892Z,100.00
2022-07-28T05:28:25.232Z,100.00
2022-07-28T05:30:54.378Z,100.00
2022-07-28T05:33:22.841Z,100.00
2022-07-28T05:35:54.746Z,100.00
2022-07-28T05:38:23.190Z,100.00
2022-07-28T05:40:53.195Z,100.00
2022-07-28T05:43:22.012Z,100.00
2022-07-28T05:45:50.828Z,100.00
2022-07-28T05:48:20.148Z,100.00
2022-07-28T05:50:49.039Z,100.00
2022-07-28T05:53:17.742Z,100.00
2022-07-28T05:55:59.534Z,100.00
2022-07-28T05:58:31.860Z,100.00
2022-07-28T06:01:01.917Z,100.00
2022-07-28T06:03:32.050Z,100.00
2022-07-28T06:06:14.674Z,100.00
2022-07-28T06:08:46.817Z,100.00
2022-07-28T06:11:22.162Z,100.00
2022-07-28T06:13:53.572Z,100.00
2022-07-28T06:16:23.268Z,100.00
2022-07-28T06:18:52.263Z,100.00
2022-07-28T06:21:21.118Z,100.00
2022-07-28T06:23:49.602Z,100.00
2022-07-28T06:26:18.120Z,100.00
2022-07-28T06:28:46.587Z,100.00
2022-07-28T06:31:16.605Z,100.00
2022-07-28T06:33:45.085Z,100.00
2022-07-28T06:36:13.654Z,100.00
2022-07-28T06:38:42.072Z,100.00
2022-07-28T06:41:10.528Z,100.00
2022-07-28T06:43:39.446Z,100.00
2022-07-28T06:46:08.471Z,100.00
2022-07-28T06:48:39.504Z,100.00
2022-07-28T06:51:08.128Z,100.00
2022-07-28T06:53:37.111Z,100.00
2022-07-28T06:56:06.580Z,100.00
2022-07-28T06:58:35.751Z,100.00
2022-07-28T07:01:07.975Z,100.00
2022-07-28T07:03:38.214Z,100.00
2022-07-28T07:06:06.648Z,100.00
2022-07-28T07:08:35.665Z,100.00
2022-07-28T07:11:04.278Z,100.00
2022-07-28T07:13:33.369Z,100.00
2022-07-28T07:16:01.937Z,100.00
2022-07-28T07:18:30.444Z,100.00
2022-07-28T07:21:00.254Z,100.00
2022-07-28T07:23:28.817Z,100.00
2022-07-28T07:25:57.531Z,100.00
2022-07-28T07:28:26.119Z,100.00
2022-07-28T07:30:54.641Z,100.00
2022-07-28T07:33:24.533Z,100.00
2022-07-28T07:35:52.930Z,100.00
2022-07-28T07:38:27.454Z,100.00
2022-07-28T07:40:57.700Z,100.00
2022-07-28T07:43:26.142Z,100.00
2022-07-28T07:45:55.223Z,100.00
2022-07-28T07:48:23.654Z,100.00
2022-07-28T07:50:54.159Z,100.00
2022-07-28T07:53:24.456Z,100.00
2022-07-28T07:55:53.231Z,100.00
2022-07-28T07:58:21.676Z,100.00
2022-07-28T08:00:50.237Z,100.00
2022-07-28T08:03:22.679Z,100.00
2022-07-28T08:05:54.862Z,100.00
2022-07-28T08:08:25.227Z,100.00
2022-07-28T08:10:54.398Z,100.00
2022-07-28T08:13:23.299Z,100.00
2022-07-28T08:15:52.093Z,100.00
2022-07-28T08:18:20.598Z,100.00
2022-07-28T08:20:49.016Z,100.00
2022-07-28T08:23:19.565Z,100.00
2022-07-28T08:25:52.730Z,100.00
2022-07-28T08:28:23.273Z,100.00
2022-07-28T08:30:52.587Z,100.00
2022-07-28T08:33:21.871Z,100.00
2022-07-28T08:35:50.837Z,100.00
2022-07-28T08:38:19.992Z,100.00
2022-07-28T08:40:50.856Z,100.00
2022-07-28T08:43:29.724Z,100.00
2022-07-28T08:45:58.773Z,100.00
2022-07-28T08:48:29.722Z,100.00
2022-07-28T08:51:02.014Z,100.00
2022-07-28T08:53:30.847Z,100.00
2022-07-28T08:56:02.800Z,100.00
2022-07-28T08:58:34.256Z,100.00
2022-07-28T09:01:02.824Z,100.00
2022-07-28T09:03:31.331Z,100.00
2022-07-28T09:05:59.791Z,100.00
2022-07-28T09:08:28.171Z,100.00
2022-07-28T09:10:56.690Z,100.00
2022-07-28T09:13:25.089Z,100.00
2022-07-28T09:15:55.035Z,100.00
2022-07-28T09:18:23.470Z,100.00
2022-07-28T09:20:51.956Z,100.00
2022-07-28T09:23:43.244Z,100.00
2022-07-28T09:26:12.324Z,100.00
2022-07-28T09:28:52.116Z,100.00
2022-07-28T09:31:23.352Z,100.00
2022-07-28T09:34:00.840Z,100.00
2022-07-28T09:36:30.549Z,100.00
2022-07-28T09:38:59.273Z,100.00
2022-07-28T09:41:27.814Z,100.00
2022-07-28T09:43:56.385Z,100.00
2022-07-28T09:46:29.452Z,100.00
2022-07-28T09:48:59.939Z,100.00
2022-07-28T09:51:30.660Z,100.00
2022-07-28T09:54:10.222Z,100.00
2022-07-28T09:56:39.696Z,100.00
2022-07-28T09:59:09.186Z,100.00
2022-07-28T10:01:53.872Z,100.00
2022-07-28T10:04:32.905Z,98.57
2022-07-28T10:07:06.754Z,97.15
2022-07-28T10:09:35.545Z,100.00
2022-07-28T10:12:17.609Z,94.18
2022-07-28T10:14:47.402Z,95.29
2022-07-28T10:17:29.144Z,92.14
2022-07-28T10:19:58.740Z,93.96
2022-07-28T10:22:29.627Z,91.09
2022-07-28T10:24:59.718Z,95.40
2022-07-28T10:27:29.437Z,91.17
2022-07-28T10:29:59.995Z,90.17
2022-07-28T10:32:30.848Z,77.68
2022-07-28T10:35:03.798Z,83.80
2022-07-28T10:37:33.162Z,83.66
2022-07-28T10:40:10.048Z,78.98
2022-07-28T10:45:48.115Z,78.72
2022-07-28T10:48:16.917Z,77.28
2022-07-28T10:50:45.583Z,82.26
2022-07-28T10:53:22.105Z,71.12
2022-07-28T10:55:54.354Z,73.21
2022-07-28T10:58:27.776Z,68.86
2022-07-28T11:00:59.921Z,68.27
2022-07-28T11:03:40.800Z,65.10
2022-07-28T11:06:26.319Z,63.06
2022-07-28T11:08:55.988Z,66.63
2022-07-28T11:11:46.980Z,66.57
2022-07-28T11:14:37.671Z,65.50
2022-07-28T11:17:16.949Z,69.90
2022-07-28T11:22:46.777Z,70.50
2022-07-28T11:25:18.771Z,70.43
2022-07-28T11:28:06.149Z,63.34
2022-07-28T11:30:55.008Z,63.24
2022-07-28T11:33:25.095Z,66.30
2022-07-28T11:35:57.208Z,70.60
2022-07-28T11:38:25.810Z,59.92
2022-07-28T11:40:56.129Z,58.65
2022-07-28T11:43:36.302Z,58.88
2022-07-28T11:46:37.664Z,54.62
2022-07-28T11:49:30.917Z,57.20
2022-07-28T11:52:21.671Z,58.57
2022-07-28T11:54:55.729Z,55.41
2022-07-28T11:57:27.974Z,56.91
2022-07-28T12:00:01.997Z,62.50
2022-07-28T12:02:32.527Z,61.72
2022-07-28T12:05:09.749Z,59.18
2022-07-28T12:07:45.620Z,62.59
2022-07-28T12:13:28.584Z,60.44
2022-07-28T12:15:57.212Z,58.96
2022-07-28T12:18:25.800Z,59.92
2022-07-28T12:20:55.669Z,60.95
2022-07-28T12:23:44.103Z,57.25
2022-07-28T12:26:14.530Z,58.83
2022-07-28T12:28:51.371Z,59.23
2022-07-28T12:31:19.846Z,60.31
2022-07-28T12:33:53.640Z,63.09
2022-07-28T12:36:24.246Z,59.26
2022-07-28T12:38:54.468Z,58.93
2022-07-28T12:41:23.909Z,57.28
2022-07-28T12:43:53.294Z,55.36
2022-07-28T12:46:23.688Z,58.76
2022-07-28T12:48:57.801Z,53.79
2022-07-28T12:51:33.969Z,54.47
2022-07-28T12:54:05.545Z,54.26
2022-07-28T12:56:45.344Z,55.69
2022-07-28T12:59:14.616Z,53.95
2022-07-28T13:01:50.076Z,55.50
2022-07-28T13:04:19.451Z,55.69
2022-07-28T13:06:57.482Z,59.18
2022-07-28T13:09:32.993Z,52.65
2022-07-28T13:12:04.119Z,52.81
2022-07-28T13:14:41.635Z,51.85
2022-07-28T13:17:11.255Z,51.57
2022-07-28T13:19:39.876Z,52.05
2022-07-28T13:22:09.222Z,51.77
2022-07-28T13:24:39.360Z,52.46
2022-07-28T13:27:08.931Z,52.45
2022-07-28T13:29:37.710Z,52.90
2022-07-28T13:32:06.713Z,53.21
2022-07-28T13:34:35.497Z,52.12
2022-07-28T13:37:04.600Z,51.68
2022-07-28T13:39:33.013Z,51.25
2022-07-28T13:42:05.683Z,48.20
2022-07-28T13:44:35.221Z,51.17
2022-07-28T13:47:05.996Z,50.06
2022-07-28T13:49:37.469Z,50.75
2022-07-28T13:52:07.105Z,50.76
2022-07-28T13:54:41.789Z,48.22
2022-07-28T13:57:12.362Z,48.61
2022-07-28T13:59:42.248Z,48.75
2022-07-28T14:02:15.197Z,47.23
2022-07-28T14:04:50.168Z,50.53
2022-07-28T14:07:21.096Z,48.94
2022-07-28T14:09:51.287Z,47.86
2022-07-28T14:12:21.071Z,48.11
2022-07-28T14:14:49.484Z,49.26
2022-07-28T14:20:12.174Z,49.63
2022-07-28T14:22:40.602Z,48.64
2022-07-28T14:25:09.675Z,48.98
2022-07-28T14:27:41.255Z,49.60
2022-07-28T14:30:11.001Z,46.93
2022-07-28T14:32:40.478Z,47.12
2022-07-28T14:35:09.370Z,47.43
2022-07-28T14:38:11.176Z,45.97
2022-07-28T14:40:26.584Z,46.45
2022-07-28T14:42:56.354Z,46.48
2022-07-28T14:45:24.873Z,45.99
2022-07-28T14:47:55.200Z,47.36
2022-07-28T14:50:23.750Z,45.50
2022-07-28T14:52:52.577Z,45.63
2022-07-28T14:55:21.295Z,42.94
2022-07-28T14:57:54.661Z,43.23
2022-07-28T15:00:28.220Z,42.76
2022-07-28T15:02:56.768Z,42.88
2022-07-28T15:05:25.514Z,43.90
2022-07-28T15:07:53.878Z,42.43
2022-07-28T15:10:22.309Z,41.41
2022-07-28T15:12:52.018Z,41.51
2022-07-28T15:15:26.440Z,43.68
2022-07-28T15:17:57.496Z,44.73
2022-07-28T15:20:26.096Z,41.79
2022-07-28T15:22:54.506Z,42.47
2022-07-28T15:25:23.026Z,43.17
2022-07-28T15:27:51.418Z,41.83
2022-07-28T15:30:19.943Z,43.18
2022-07-28T15:32:56.961Z,42.72
2022-07-28T15:35:27.598Z,42.57
2022-07-28T15:37:56.142Z,43.83
2022-07-28T15:40:25.298Z,44.53
2022-07-28T15:42:54.050Z,44.23
2022-07-28T15:45:25.919Z,42.89
2022-07-28T15:47:55.714Z,42.79
2022-07-28T15:50:24.537Z,42.59
2022-07-28T15:52:54.308Z,41.98
2022-07-28T15:55:22.678Z,41.78
2022-07-28T15:57:51.659Z,41.49
2022-07-28T16:00:20.674Z,40.94
2022-07-28T16:02:50.439Z,41.51
2022-07-28T16:05:18.957Z,40.35
2022-07-28T16:07:47.353Z,40.52
2022-07-28T16:10:17.270Z,40.61
2022-07-28T16:15:32.221Z,40.75
2022-07-28T16:18:00.597Z,41.02
2022-07-28T16:20:30.117Z,41.59
2022-07-28T16:22:58.785Z,42.60
2022-07-28T16:25:29.050Z,42.49
2022-07-28T16:27:57.947Z,42.26
2022-07-28T16:30:26.371Z,42.56
2022-07-28T16:32:54.893Z,43.08
2022-07-28T16:35:23.508Z,43.38
2022-07-28T16:37:52.161Z,43.45
2022-07-28T16:40:20.662Z,42.94
2022-07-28T16:42:52.202Z,42.28
2022-07-28T16:45:20.700Z,43.76
2022-07-28T16:47:49.060Z,43.30
2022-07-28T16:50:18.957Z,43.81
2022-07-28T16:52:47.484Z,45.15
2022-07-28T16:55:20.067Z,44.90
2022-07-28T16:57:53.630Z,44.67
2022-07-28T17:00:25.635Z,44.25
2022-07-28T17:02:54.626Z,44.56
2022-07-28T17:05:23.614Z,44.44
2022-07-28T17:07:54.088Z,44.64
2022-07-28T17:10:27.206Z,44.47
2022-07-28T17:12:58.661Z,43.35
2022-07-28T17:15:27.227Z,42.37
2022-07-28T17:17:56.641Z,41.47
2022-07-28T17:20:25.524Z,41.17
2022-07-28T17:22:53.981Z,41.12
2022-07-28T17:25:47.239Z,41.44
2022-07-28T17:28:12.492Z,41.73
2022-07-28T17:30:41.663Z,40.71
2022-07-28T17:33:10.077Z,40.26
2022-07-28T17:35:39.203Z,41.04
2022-07-28T17:38:09.633Z,40.14
2022-07-28T17:40:39.595Z,41.81
2022-07-28T17:43:08.794Z,43.24
2022-07-28T17:45:38.860Z,44.19
2022-07-28T17:48:07.710Z,46.38
2022-07-28T17:50:36.197Z,47.24
2022-07-28T17:53:04.710Z,47.09
2022-07-28T17:55:57.533Z,44.22
2022-07-28T17:58:29.158Z,45.65
2022-07-28T18:01:11.054Z,49.24
2022-07-28T18:03:56.776Z,50.44
2022-07-28T18:06:30.628Z,50.66
2022-07-28T18:09:05.759Z,52.04
2022-07-28T18:11:57.932Z,52.83
2022-07-28T18:14:28.310Z,57.91
2022-07-28T18:16:58.348Z,61.42
2022-07-28T18:19:26.559Z,64.09
2022-07-28T18:21:55.902Z,67.23
2022-07-28T18:24:24.580Z,68.49
2022-07-28T18:26:53.630Z,67.56
2022-07-28T18:29:22.712Z,70.81
2022-07-28T18:31:52.055Z,74.50
2022-07-28T18:34:23.510Z,76.89
2022-07-28T18:36:54.328Z,86.55
2022-07-28T18:39:22.901Z,89.17
2022-07-28T18:41:51.497Z,84.13
2022-07-28T18:44:20.628Z,98.11
2022-07-28T18:46:49.473Z,99.69
2022-07-28T18:49:18.183Z,100.00
2022-07-28T18:51:49.387Z,100.00
2022-07-28T18:54:27.021Z,98.79
2022-07-28T18:56:56.303Z,97.60
2022-07-28T18:59:24.755Z,98.64
2022-07-28T19:01:53.547Z,100.00
2022-07-28T19:04:22.122Z,100.00
2022-07-28T19:06:52.309Z,100.00
2022-07-28T19:09:20.508Z,96.55
2022-07-28T19:11:48.904Z,96.26
2022-07-28T19:14:18.226Z,100.00
2022-07-28T19:16:47.016Z,100.00
2022-07-28T19:19:15.815Z,100.00
2022-07-28T19:21:44.298Z,100.00
2022-07-28T19:24:15.281Z,100.00
2022-07-28T19:26:45.412Z,100.00
2022-07-28T19:29:13.946Z,100.00
2022-07-28T19:31:42.468Z,100.00
2022-07-28T19:34:11.513Z,100.00
2022-07-28T19:36:41.706Z,100.00
2022-07-28T19:39:10.495Z,100.00
2022-07-28T19:41:40.391Z,100.00
2022-07-28T19:44:08.758Z,100.00
2022-07-28T19:46:37.966Z,100.00
2022-07-28T19:49:08.082Z,100.00
2022-07-28T19:51:36.763Z,100.00
2022-07-28T19:54:05.475Z,100.00
2022-07-28T19:56:33.880Z,100.00
2022-07-28T19:59:04.147Z,100.00
2022-07-28T20:01:32.548Z,100.00
2022-07-28T20:04:05.340Z,100.00
2022-07-28T20:06:34.548Z,100.00
2022-07-28T20:09:03.723Z,100.00
2022-07-28T20:11:33.001Z,100.00
2022-07-28T20:14:03.480Z,100.00
2022-07-28T20:16:31.686Z,100.00
2022-07-28T20:19:00.082Z,100.00
2022-07-28T20:21:28.488Z,100.00
2022-07-28T20:23:58.786Z,100.00
2022-07-28T20:26:28.294Z,100.00
2022-07-28T20:28:58.385Z,100.00
2022-07-28T20:31:28.409Z,100.00
2022-07-28T20:33:56.934Z,100.00
2022-07-28T20:36:29.714Z,100.00
2022-07-28T20:38:58.500Z,100.00
2022-07-28T20:41:27.085Z,100.00
2022-07-28T20:44:26.238Z,100.00
2022-07-28T20:46:45.260Z,100.00
2022-07-28T20:49:13.662Z,100.00
2022-07-28T20:51:50.604Z,100.00
2022-07-28T20:54:19.560Z,100.00
2022-07-28T20:56:48.049Z,100.00
2022-07-28T20:59:16.580Z,100.00
2022-07-28T21:01:46.508Z,100.00
2022-07-28T21:04:15.353Z,100.00
2022-07-28T21:06:51.695Z,100.00
2022-07-28T21:09:21.373Z,100.00
2022-07-28T21:11:49.755Z,100.00
2022-07-28T21:14:18.704Z,100.00
2022-07-28T21:16:48.910Z,100.00
2022-07-28T21:19:17.300Z,100.00
2022-07-28T21:21:45.649Z,100.00
2022-07-28T21:24:14.277Z,100.00
2022-07-28T21:26:43.061Z,100.00
2022-07-28T21:32:04.679Z,100.00
2022-07-28T21:34:35.896Z,100.00
2022-07-28T21:37:04.885Z,100.00
2022-07-28T21:39:33.780Z,100.00
2022-07-28T21:42:04.698Z,100.00
2022-07-28T21:44:36.133Z,100.00
2022-07-28T21:47:04.724Z,100.00
2022-07-28T21:49:33.287Z,100.00
2022-07-28T21:52:03.115Z,100.00
2022-07-28T21:54:31.537Z,100.00
2022-07-28T21:56:59.920Z,100.00
2022-07-28T21:59:28.337Z,100.00
2022-07-28T22:01:56.964Z,100.00
2022-07-28T22:04:25.838Z,100.00
2022-07-28T22:06:54.589Z,100.00
2022-07-28T22:09:24.523Z,100.00
2022-07-28T22:11:52.997Z,100.00
2022-07-28T22:14:21.494Z,100.00
2022-07-28T22:16:50.596Z,100.00
2022-07-28T22:19:19.079Z,100.00
2022-07-28T22:21:47.829Z,100.00
2022-07-28T22:24:17.187Z,100.00
2022-07-28T22:26:47.180Z,100.00
2022-07-28T22:29:15.637Z,100.00
2022-07-28T22:31:44.498Z,100.00
2022-07-28T22:34:13.362Z,100.00
2022-07-28T22:36:42.007Z,100.00
2022-07-28T22:39:10.538Z,100.00
2022-07-28T22:41:38.926Z,100.00
2022-07-28T22:44:10.259Z,100.00
2022-07-28T22:46:38.780Z,100.00
2022-07-28T22:49:07.283Z,100.00
2022-07-28T22:51:35.884Z,100.00
2022-07-28T22:54:04.450Z,100.00
2022-07-28T22:56:35.085Z,100.00
2022-07-28T22:59:06.555Z,100.00
2022-07-28T23:01:36.588Z,100.00
2022-07-28T23:04:05.400Z,100.00
2022-07-28T23:06:35.966Z,100.00
2022-07-28T23:09:04.596Z,100.00
2022-07-28T23:11:32.973Z,100.00
2022-07-28T23:14:01.416Z,100.00
2022-07-28T23:16:30.096Z,100.00
2022-07-28T23:19:00.465Z,100.00
2022-07-28T23:21:28.672Z,100.00
2022-07-28T23:23:57.122Z,100.00
2022-07-28T23:26:25.605Z,100.00
2022-07-28T23:28:54.251Z,100.00
2022-07-28T23:31:22.785Z,100.00
2022-07-28T23:33:55.195Z,100.00
2022-07-28T23:36:27.993Z,100.00
2022-07-28T23:38:58.305Z,100.00
2022-07-28T23:41:27.682Z,100.00
2022-07-28T23:43:56.190Z,100.00
2022-07-28T23:46:25.048Z,100.00
2022-07-28T23:48:53.593Z,100.00
2022-07-28T23:51:31.925Z,100.00
2022-07-28T23:54:14.663Z,100.00
2022-07-28T23:56:43.715Z,100.00
2022-07-28T23:59:14.464Z,100.00
